createdAt,value
2022-10-28T00:01:24.543Z,91.33
2022-10-28T00:03:56.753Z,91.40
2022-10-28T00:06:30.069Z,91.45
2022-10-28T00:08:57.983Z,91.35
2022-10-28T00:11:34.975Z,91.67
2022-10-28T00:14:04.226Z,91.58
2022-10-28T00:16:33.211Z,91.29
2022-10-28T00:19:01.336Z,91.25
2022-10-28T00:21:31.236Z,91.21
2022-10-28T00:23:58.062Z,91.50
2022-10-28T00:26:27.160Z,91.65
2022-10-28T00:29:04.600Z,91.96
2022-10-28T00:31:32.486Z,92.08
2022-10-28T00:34:01.255Z,92.19
2022-10-28T00:36:37.486Z,92.27
2022-10-28T00:39:11.554Z,92.21
2022-10-28T00:41:41.171Z,92.27
2022-10-28T00:44:47.771Z,92.18
2022-10-28T00:47:36.333Z,92.29
2022-10-28T00:50:34.441Z,92.65
2022-10-28T00:53:10.059Z,92.60
2022-10-28T00:55:39.594Z,92.62
2022-10-28T00:58:08.510Z,92.65
2022-10-28T01:00:38.029Z,92.77
2022-10-28T01:03:04.971Z,93.01
2022-10-28T01:05:34.352Z,93.03
2022-10-28T01:08:03.331Z,92.75
2022-10-28T01:10:45.694Z,92.87
2022-10-28T01:13:43.218Z,92.86
2022-10-28T01:16:38.470Z,92.38
2022-10-28T01:19:19.696Z,92.65
2022-10-28T01:22:37.543Z,92.75
2022-10-28T01:25:28.642Z,92.92
2022-10-28T01:28:12.411Z,93.17
2022-10-28T01:31:13.400Z,93.31
2022-10-28T01:33:53.517Z,93.54
2022-10-28T01:36:35.981Z,93.46
2022-10-28T01:39:27.543Z,93.58
2022-10-28T01:42:19.262Z,93.65
2022-10-28T01:45:00.241Z,93.45
2022-10-28T01:47:31.545Z,93.76
2022-10-28T01:50:05.023Z,93.78
2022-10-28T01:52:32.355Z,93.86
2022-10-28T01:55:12.800Z,93.99
2022-10-28T01:57:43.916Z,93.81
2022-10-28T02:00:13.761Z,93.64
2022-10-28T02:02:42.762Z,93.85
2022-10-28T02:05:40.760Z,93.89
2022-10-28T02:08:19.924Z,93.94
2022-10-28T02:11:28.133Z,93.84
2022-10-28T02:14:03.967Z,94.16
2022-10-28T02:16:48.053Z,94.07
2022-10-28T02:19:17.833Z,93.90
2022-10-28T02:21:59.400Z,94.17
2022-10-28T02:24:41.811Z,94.09
2022-10-28T02:27:18.174Z,94.22
2022-10-28T02:30:02.260Z,94.50
2022-10-28T02:32:33.488Z,94.24
2022-10-28T02:35:03.902Z,94.50
2022-10-28T02:37:33.714Z,94.27
2022-10-28T02:40:05.696Z,94.33
2022-10-28T02:42:40.940Z,94.40
2022-10-28T02:45:31.463Z,94.24
2022-10-28T02:48:04.629Z,94.41
2022-10-28T02:50:36.271Z,94.55
2022-10-28T02:53:11.703Z,94.41
2022-10-28T02:55:42.620Z,94.33
2022-10-28T02:58:10.612Z,94.43
2022-10-28T03:00:37.277Z,94.43
2022-10-28T03:03:06.395Z,94.46
2022-10-28T03:05:33.061Z,94.37
2022-10-28T03:08:01.887Z,94.45
2022-10-28T03:10:28.650Z,94.07
2022-10-28T03:12:55.228Z,94.45
2022-10-28T03:15:21.851Z,94.63
2022-10-28T03:17:48.832Z,94.52
2022-10-28T03:20:15.660Z,94.48
2022-10-28T03:22:45.479Z,94.36
2022-10-28T03:25:13.091Z,94.57
2022-10-28T03:27:41.399Z,94.52
2022-10-28T03:30:08.510Z,94.73
2022-10-28T03:32:37.735Z,94.74
2022-10-28T03:35:04.875Z,94.51
2022-10-28T03:37:31.491Z,94.41
2022-10-28T03:39:59.565Z,93.96
2022-10-28T03:42:26.874Z,94.42
2022-10-28T03:44:53.587Z,94.29
2022-10-28T03:47:23.001Z,94.09
2022-10-28T03:49:49.644Z,94.25
2022-10-28T03:52:16.730Z,94.14
2022-10-28T03:54:43.375Z,94.04
2022-10-28T03:57:10.012Z,94.13
2022-10-28T03:59:36.601Z,93.98
2022-10-28T04:02:03.371Z,94.40
2022-10-28T04:04:30.918Z,94.21
2022-10-28T04:06:57.831Z,94.05
2022-10-28T04:09:24.485Z,94.58
2022-10-28T04:11:51.453Z,94.12
2022-10-28T04:14:20.679Z,94.52
2022-10-28T04:16:47.494Z,94.19
2022-10-28T04:19:14.228Z,94.24
2022-10-28T04:21:43.156Z,94.40
2022-10-28T04:24:09.909Z,94.34
2022-10-28T04:26:42.133Z,94.23
2022-10-28T04:29:08.847Z,94.54
2022-10-28T04:31:35.465Z,94.49
2022-10-28T04:34:02.120Z,94.58
2022-10-28T04:36:28.832Z,94.56
2022-10-28T04:38:55.959Z,94.65
2022-10-28T04:41:22.732Z,94.32
2022-10-28T04:43:52.408Z,94.63
2022-10-28T04:46:19.049Z,94.58
2022-10-28T04:48:47.981Z,94.60
2022-10-28T04:51:15.154Z,94.42
2022-10-28T04:53:42.114Z,94.68
2022-10-28T04:56:09.432Z,94.59
2022-10-28T04:58:36.675Z,94.56
2022-10-28T05:01:10.588Z,94.75
2022-10-28T05:03:37.479Z,94.86
2022-10-28T05:06:06.983Z,94.77
2022-10-28T05:08:33.739Z,95.09
2022-10-28T05:11:02.912Z,95.04
2022-10-28T05:13:29.463Z,95.21
2022-10-28T05:15:56.234Z,95.32
2022-10-28T05:18:24.999Z,95.32
2022-10-28T05:20:55.107Z,95.52
2022-10-28T05:23:25.773Z,95.52
2022-10-28T05:25:55.562Z,95.37
2022-10-28T05:28:22.298Z,95.50
2022-10-28T05:30:48.977Z,95.37
2022-10-28T05:33:15.600Z,95.52
2022-10-28T05:35:42.332Z,95.62
2022-10-28T05:38:11.481Z,95.78
2022-10-28T05:40:38.223Z,95.46
2022-10-28T05:43:05.572Z,95.69
2022-10-28T05:45:32.558Z,95.85
2022-10-28T05:47:59.184Z,95.60
2022-10-28T05:50:26.518Z,95.90
2022-10-28T05:52:55.556Z,95.99
2022-10-28T05:55:24.653Z,96.07
2022-10-28T05:57:53.029Z,96.31
2022-10-28T06:00:23.037Z,96.24
2022-10-28T06:02:50.017Z,96.22
2022-10-28T06:05:16.676Z,96.03
2022-10-28T06:07:43.730Z,95.90
2022-10-28T06:10:11.693Z,96.18
2022-10-28T06:12:36.994Z,96.34
2022-10-28T06:15:04.169Z,96.06
2022-10-28T06:17:30.857Z,95.99
2022-10-28T06:19:57.468Z,96.33
2022-10-28T06:22:24.183Z,96.41
2022-10-28T06:24:53.793Z,96.18
2022-10-28T06:27:20.392Z,96.15
2022-10-28T06:29:47.133Z,96.18
2022-10-28T06:32:16.029Z,96.26
2022-10-28T06:34:42.632Z,96.10
2022-10-28T06:37:09.513Z,95.74
2022-10-28T06:39:38.465Z,95.85
2022-10-28T06:42:05.307Z,96.00
2022-10-28T06:44:34.162Z,96.09
2022-10-28T06:47:02.255Z,95.50
2022-10-28T06:49:29.810Z,95.61
2022-10-28T06:51:56.464Z,95.58
2022-10-28T06:54:23.501Z,95.32
2022-10-28T06:56:52.394Z,95.30
2022-10-28T06:59:19.023Z,95.24
2022-10-28T07:01:45.683Z,95.07
2022-10-28T07:04:15.337Z,94.93
2022-10-28T07:06:42.213Z,94.75
2022-10-28T07:09:13.139Z,94.60
2022-10-28T07:11:40.959Z,94.58
2022-10-28T07:14:10.559Z,94.30
2022-10-28T07:16:39.728Z,94.13
2022-10-28T07:19:08.944Z,94.05
2022-10-28T07:21:36.067Z,93.72
2022-10-28T07:24:03.633Z,93.61
2022-10-28T07:26:30.299Z,93.39
2022-10-28T07:28:59.837Z,93.17
2022-10-28T07:31:27.857Z,92.92
2022-10-28T07:33:55.695Z,92.83
2022-10-28T07:36:22.718Z,92.71
2022-10-28T07:38:52.429Z,92.73
2022-10-28T07:41:24.771Z,92.18
2022-10-28T07:43:51.964Z,91.87
2022-10-28T07:46:22.233Z,91.65
2022-10-28T07:48:49.244Z,91.25
2022-10-28T07:51:16.643Z,91.10
2022-10-28T07:53:43.439Z,91.07
2022-10-28T07:56:14.888Z,90.74
2022-10-28T07:58:44.354Z,90.27
2022-10-28T08:01:13.428Z,90.08
2022-10-28T08:03:40.676Z,89.98
2022-10-28T08:06:14.000Z,89.60
2022-10-28T08:08:40.612Z,89.42
2022-10-28T08:11:16.525Z,89.55
2022-10-28T08:13:48.384Z,89.58
2022-10-28T08:16:15.219Z,89.09
2022-10-28T08:18:42.125Z,88.84
2022-10-28T08:21:11.329Z,88.95
2022-10-28T08:23:38.517Z,88.74
2022-10-28T08:26:07.468Z,88.64
2022-10-28T08:28:34.379Z,88.64
2022-10-28T08:31:09.101Z,88.47
2022-10-28T08:33:38.312Z,88.25
2022-10-28T08:36:07.747Z,88.16
2022-10-28T08:38:34.382Z,87.89
2022-10-28T08:41:28.900Z,87.92
2022-10-28T08:44:26.673Z,87.75
2022-10-28T08:47:21.696Z,87.58
2022-10-28T08:49:54.738Z,86.94
2022-10-28T08:52:29.943Z,86.21
2022-10-28T08:55:31.831Z,84.68
2022-10-28T08:58:09.528Z,83.21
2022-10-28T09:00:36.973Z,81.86
2022-10-28T09:03:43.495Z,81.23
2022-10-28T09:06:11.053Z,80.29
2022-10-28T09:08:41.676Z,80.48
2022-10-28T09:11:11.115Z,80.41
2022-10-28T09:14:14.771Z,80.71
2022-10-28T09:16:49.985Z,81.29
2022-10-28T09:19:22.485Z,81.52
2022-10-28T09:22:01.752Z,81.47
2022-10-28T09:24:51.120Z,81.07
2022-10-28T09:27:25.021Z,80.56
2022-10-28T09:30:23.644Z,80.28
2022-10-28T09:33:14.342Z,80.29
2022-10-28T09:35:44.536Z,80.15
2022-10-28T09:38:16.593Z,80.99
2022-10-28T09:40:51.123Z,80.45
2022-10-28T09:43:24.936Z,80.80
2022-10-28T09:46:00.444Z,80.76
2022-10-28T09:48:34.089Z,80.27
2022-10-28T09:51:01.237Z,79.39
2022-10-28T09:53:48.848Z,78.88
2022-10-28T09:56:18.118Z,78.48
2022-10-28T09:58:47.804Z,77.56
2022-10-28T10:01:17.097Z,77.35
2022-10-28T10:03:45.408Z,77.37
2022-10-28T10:06:26.208Z,76.84
2022-10-28T10:08:56.303Z,76.72
2022-10-28T10:11:32.442Z,76.24
2022-10-28T10:14:03.324Z,75.82
2022-10-28T10:16:51.961Z,75.67
2022-10-28T10:19:18.766Z,75.40
2022-10-28T10:21:50.476Z,74.96
2022-10-28T10:24:31.494Z,74.58
2022-10-28T10:27:04.183Z,74.51
2022-10-28T10:29:31.775Z,74.14
2022-10-28T10:32:16.597Z,74.05
2022-10-28T10:34:57.370Z,73.43
2022-10-28T10:37:24.458Z,73.35
2022-10-28T10:40:00.168Z,72.97
2022-10-28T10:42:28.140Z,72.57
2022-10-28T10:45:00.987Z,72.57
2022-10-28T10:47:30.197Z,72.16
2022-10-28T10:50:22.551Z,72.08
2022-10-28T10:52:58.058Z,71.26
2022-10-28T10:55:27.756Z,70.81
2022-10-28T10:57:55.391Z,70.61
2022-10-28T11:00:25.683Z,70.02
2022-10-28T11:02:55.948Z,69.60
2022-10-28T11:05:27.008Z,69.12
2022-10-28T11:07:58.917Z,68.47
2022-10-28T11:10:29.605Z,67.93
2022-10-28T11:12:58.403Z,67.90
2022-10-28T11:15:28.827Z,67.35
2022-10-28T11:18:21.332Z,67.49
2022-10-28T11:21:10.050Z,67.43
2022-10-28T11:23:42.996Z,67.38
2022-10-28T11:26:14.168Z,67.10
2022-10-28T11:28:43.887Z,66.94
2022-10-28T11:31:30.784Z,67.08
2022-10-28T11:34:06.571Z,66.56
2022-10-28T11:36:54.949Z,66.58
2022-10-28T11:39:26.672Z,66.16
2022-10-28T11:42:19.635Z,66.25
2022-10-28T11:44:56.078Z,66.05
2022-10-28T11:47:44.314Z,66.09
2022-10-28T11:50:18.365Z,65.85
2022-10-28T11:52:57.259Z,65.68
2022-10-28T11:55:42.644Z,65.68
2022-10-28T11:58:37.551Z,65.88
2022-10-28T12:01:12.588Z,64.99
2022-10-28T12:03:51.431Z,65.13
2022-10-28T12:06:47.076Z,65.46
2022-10-28T12:09:25.884Z,65.08
2022-10-28T12:12:13.805Z,65.01
2022-10-28T12:14:46.860Z,64.54
2022-10-28T12:17:35.412Z,64.57
2022-10-28T12:20:11.735Z,64.51
2022-10-28T12:22:51.952Z,64.75
2022-10-28T12:25:25.564Z,64.67
2022-10-28T12:27:57.409Z,64.39
2022-10-28T12:30:34.477Z,64.40
2022-10-28T12:33:16.805Z,64.54
2022-10-28T12:35:58.474Z,64.07
2022-10-28T12:38:43.074Z,64.42
2022-10-28T12:41:21.235Z,64.37
2022-10-28T12:43:56.126Z,64.05
2022-10-28T12:46:39.055Z,64.43
2022-10-28T12:49:16.571Z,64.24
2022-10-28T12:51:44.043Z,64.42
2022-10-28T12:54:21.752Z,64.45
2022-10-28T12:56:53.411Z,64.86
2022-10-28T12:59:27.276Z,64.77
2022-10-28T13:01:54.499Z,64.77
2022-10-28T13:04:21.333Z,65.07
2022-10-28T13:07:29.506Z,65.10
2022-10-28T13:10:11.331Z,65.16
2022-10-28T13:12:59.315Z,65.39
2022-10-28T13:15:52.631Z,65.94
2022-10-28T13:18:44.314Z,65.68
2022-10-28T13:21:46.924Z,65.78
2022-10-28T13:24:24.902Z,65.78
2022-10-28T13:26:52.112Z,65.68
2022-10-28T13:29:32.557Z,66.06
2022-10-28T13:31:59.483Z,66.27
2022-10-28T13:34:36.093Z,66.38
2022-10-28T13:37:18.099Z,66.20
2022-10-28T13:39:47.468Z,66.03
2022-10-28T13:42:14.848Z,66.04
2022-10-28T13:44:58.826Z,65.85
2022-10-28T13:47:32.103Z,65.82
2022-10-28T13:50:11.498Z,66.18
2022-10-28T13:53:22.590Z,66.05
2022-10-28T13:55:49.192Z,66.06
2022-10-28T13:58:22.957Z,65.95
2022-10-28T14:00:53.720Z,65.82
2022-10-28T14:03:27.999Z,65.58
2022-10-28T14:05:58.211Z,65.83
2022-10-28T14:08:38.350Z,65.92
2022-10-28T14:11:15.255Z,65.73
2022-10-28T14:13:53.095Z,65.83
2022-10-28T14:16:23.092Z,65.86
2022-10-28T14:18:57.738Z,65.85
2022-10-28T14:21:27.062Z,66.04
2022-10-28T14:24:32.160Z,66.50
2022-10-28T14:27:08.288Z,65.98
2022-10-28T14:29:57.824Z,65.98
2022-10-28T14:32:35.955Z,66.09
2022-10-28T14:35:17.874Z,66.11
2022-10-28T14:38:09.319Z,66.25
2022-10-28T14:40:38.898Z,66.38
2022-10-28T14:43:38.710Z,66.74
2022-10-28T14:46:14.274Z,66.82
2022-10-28T14:48:46.128Z,66.95
2022-10-28T14:51:17.327Z,67.23
2022-10-28T14:53:45.744Z,67.22
2022-10-28T14:56:20.500Z,67.51
2022-10-28T14:58:47.375Z,67.31
2022-10-28T15:01:19.475Z,67.85
2022-10-28T15:03:51.037Z,67.89
2022-10-28T15:06:28.749Z,67.67
2022-10-28T15:08:57.002Z,68.09
2022-10-28T15:11:24.060Z,68.25
2022-10-28T15:13:54.159Z,68.38
2022-10-28T15:16:25.547Z,68.71
2022-10-28T15:18:54.047Z,68.67
2022-10-28T15:21:22.824Z,68.91
2022-10-28T15:24:02.729Z,69.25
2022-10-28T15:26:30.111Z,69.14
2022-10-28T15:28:57.007Z,69.49
2022-10-28T15:31:23.978Z,69.99
2022-10-28T15:33:50.611Z,69.97
2022-10-28T15:36:22.261Z,70.02
2022-10-28T15:38:54.111Z,70.50
2022-10-28T15:41:26.414Z,70.09
2022-10-28T15:44:01.200Z,70.75
2022-10-28T15:46:31.694Z,70.74
2022-10-28T15:49:01.072Z,70.69
2022-10-28T15:51:28.313Z,70.88
2022-10-28T15:54:09.888Z,71.00
2022-10-28T15:56:58.138Z,71.34
2022-10-28T15:59:25.633Z,71.44
2022-10-28T16:01:56.209Z,71.57
2022-10-28T16:04:23.821Z,71.72
2022-10-28T16:06:53.770Z,71.65
2022-10-28T16:09:34.618Z,72.06
2022-10-28T16:12:04.783Z,72.06
2022-10-28T16:14:31.568Z,72.24
2022-10-28T16:17:24.931Z,72.54
2022-10-28T16:19:56.893Z,72.65
2022-10-28T16:22:28.303Z,72.77
2022-10-28T16:24:55.711Z,73.32
2022-10-28T16:27:28.613Z,73.46
2022-10-28T16:29:55.551Z,73.63
2022-10-28T16:32:34.903Z,73.82
2022-10-28T16:35:02.494Z,74.17
2022-10-28T16:37:31.603Z,74.71
2022-10-28T16:39:58.245Z,74.57
2022-10-28T16:42:25.851Z,74.94
2022-10-28T16:44:52.687Z,75.30
2022-10-28T16:47:21.093Z,75.41
2022-10-28T16:49:54.331Z,75.62
2022-10-28T16:52:28.988Z,75.82
2022-10-28T16:54:56.564Z,75.66
2022-10-28T16:57:26.641Z,75.96
2022-10-28T16:59:53.773Z,75.94
2022-10-28T17:02:28.439Z,76.64
2022-10-28T17:04:58.579Z,76.72
2022-10-28T17:07:26.045Z,76.99
2022-10-28T17:09:52.861Z,76.87
2022-10-28T17:12:21.853Z,77.22
2022-10-28T17:14:49.013Z,77.47
2022-10-28T17:17:16.074Z,77.53
2022-10-28T17:19:46.586Z,77.59
2022-10-28T17:22:13.989Z,77.45
2022-10-28T17:24:41.014Z,77.75
2022-10-28T17:27:08.159Z,77.67
2022-10-28T17:29:35.065Z,77.91
2022-10-28T17:32:04.436Z,77.84
2022-10-28T17:34:31.696Z,77.76
2022-10-28T17:37:00.470Z,78.15
2022-10-28T17:39:29.513Z,78.26
2022-10-28T17:41:56.683Z,78.15
2022-10-28T17:44:23.374Z,78.58
2022-10-28T17:46:52.681Z,78.81
2022-10-28T17:49:21.753Z,78.84
2022-10-28T17:51:48.332Z,79.13
2022-10-28T17:54:19.786Z,79.27
2022-10-28T17:56:47.859Z,79.41
2022-10-28T17:59:18.840Z,79.16
2022-10-28T18:01:48.604Z,79.61
2022-10-28T18:04:15.334Z,79.77
2022-10-28T18:06:41.968Z,79.67
2022-10-28T18:09:12.507Z,80.11
2022-10-28T18:11:40.203Z,79.85
2022-10-28T18:14:09.021Z,80.31
2022-10-28T18:16:37.005Z,80.43
2022-10-28T18:19:07.250Z,80.63
2022-10-28T18:21:34.468Z,80.64
2022-10-28T18:24:06.243Z,80.86
2022-10-28T18:26:35.252Z,80.99
2022-10-28T18:29:05.912Z,81.10
2022-10-28T18:31:33.706Z,81.31
2022-10-28T18:34:01.140Z,81.45
2022-10-28T18:36:34.486Z,81.80
2022-10-28T18:39:06.881Z,81.85
2022-10-28T18:41:36.257Z,81.82
2022-10-28T18:44:04.946Z,81.73
2022-10-28T18:46:35.411Z,81.68
2022-10-28T18:49:02.891Z,81.77
2022-10-28T18:51:29.717Z,82.21
2022-10-28T18:53:56.897Z,82.40
2022-10-28T18:56:29.352Z,82.61
2022-10-28T18:58:57.522Z,82.50
2022-10-28T19:01:27.002Z,82.84
2022-10-28T19:03:58.779Z,82.98
2022-10-28T19:06:27.693Z,83.14
2022-10-28T19:08:56.593Z,83.40
2022-10-28T19:11:30.427Z,83.42
2022-10-28T19:14:03.258Z,83.54
2022-10-28T19:16:34.595Z,83.65
2022-10-28T19:19:04.235Z,83.79
2022-10-28T19:21:31.759Z,83.88
2022-10-28T19:23:58.730Z,84.02
2022-10-28T19:26:25.394Z,84.02
2022-10-28T19:28:52.429Z,84.20
2022-10-28T19:31:21.405Z,84.32
2022-10-28T19:33:49.480Z,84.70
2022-10-28T19:36:21.689Z,85.09
2022-10-28T19:38:50.091Z,85.03
2022-10-28T19:41:22.336Z,85.29
2022-10-28T19:43:56.795Z,85.38
2022-10-28T19:46:29.422Z,85.54
2022-10-28T19:48:59.556Z,85.84
2022-10-28T19:54:13.586Z,86.01
2022-10-28T19:56:40.370Z,86.20
2022-10-28T19:59:07.394Z,86.35
2022-10-28T20:01:39.088Z,86.43
2022-10-28T20:04:07.030Z,86.63
2022-10-28T20:06:36.237Z,86.22
2022-10-28T20:09:05.778Z,86.75
2022-10-28T20:11:38.017Z,86.64
2022-10-28T20:14:11.916Z,86.84
2022-10-28T20:16:42.962Z,87.13
2022-10-28T20:19:12.097Z,87.02
2022-10-28T20:21:42.011Z,87.24
2022-10-28T20:24:08.887Z,87.45
2022-10-28T20:26:37.669Z,87.49
2022-10-28T20:29:07.007Z,87.62
2022-10-28T20:31:33.816Z,87.66
2022-10-28T20:34:04.155Z,88.02
2022-10-28T20:36:36.387Z,87.67
2022-10-28T20:39:14.546Z,87.51
2022-10-28T20:41:42.864Z,87.89
2022-10-28T20:44:09.673Z,87.98
2022-10-28T20:46:37.231Z,87.87
2022-10-28T20:49:04.927Z,87.91
2022-10-28T20:51:33.543Z,87.84
2022-10-28T20:54:00.552Z,88.05
2022-10-28T20:56:29.969Z,87.73
2022-10-28T20:59:00.334Z,87.88
2022-10-28T21:01:29.792Z,87.84
2022-10-28T21:04:01.453Z,87.71
2022-10-28T21:06:30.541Z,87.95
2022-10-28T21:08:58.786Z,87.93
2022-10-28T21:11:27.066Z,87.74
2022-10-28T21:13:59.431Z,87.99
2022-10-28T21:16:27.899Z,88.12
2022-10-28T21:18:55.135Z,88.29
2022-10-28T21:21:25.564Z,88.24
2022-10-28T21:23:52.656Z,88.06
2022-10-28T21:26:19.968Z,88.15
2022-10-28T21:28:51.814Z,88.31
2022-10-28T21:31:19.460Z,88.41
2022-10-28T21:33:46.602Z,88.62
2022-10-28T21:36:16.265Z,88.82
2022-10-28T21:38:43.228Z,88.70
2022-10-28T21:41:14.467Z,88.76
2022-10-28T21:43:43.025Z,89.03
2022-10-28T21:46:10.593Z,89.01
2022-10-28T21:48:38.381Z,89.11
2022-10-28T21:51:11.763Z,89.16
2022-10-28T21:53:41.625Z,89.10
2022-10-28T21:56:16.305Z,89.10
2022-10-28T21:58:44.360Z,89.38
2022-10-28T22:01:12.834Z,89.35
2022-10-28T22:03:39.993Z,89.67
2022-10-28T22:06:06.879Z,89.35
2022-10-28T22:08:34.008Z,89.61
2022-10-28T22:11:05.089Z,89.70
2022-10-28T22:13:34.734Z,89.59
2022-10-28T22:16:10.758Z,89.67
2022-10-28T22:18:38.653Z,89.74
2022-10-28T22:21:06.278Z,90.02
2022-10-28T22:23:33.478Z,89.88
2022-10-28T22:26:05.642Z,90.07
2022-10-28T22:28:32.636Z,89.80
2022-10-28T22:31:04.764Z,89.77
2022-10-28T22:33:37.856Z,89.71
2022-10-28T22:36:09.779Z,89.78
2022-10-28T22:38:36.632Z,89.88
2022-10-28T22:41:03.315Z,89.78
2022-10-28T22:43:30.272Z,89.76
2022-10-28T22:45:58.573Z,89.34
2022-10-28T22:48:28.239Z,89.40
2022-10-28T22:50:57.592Z,89.33
2022-10-28T22:53:25.214Z,89.43
2022-10-28T22:55:57.868Z,89.29
2022-10-28T22:58:26.814Z,89.24
2022-10-28T23:00:54.037Z,89.25
2022-10-28T23:03:21.562Z,89.69
2022-10-28T23:05:48.184Z,89.49
2022-10-28T23:08:15.924Z,89.57
2022-10-28T23:10:42.944Z,89.85
2022-10-28T23:13:13.719Z,89.80
2022-10-28T23:15:42.550Z,89.91
2022-10-28T23:18:09.348Z,89.94
2022-10-28T23:20:37.330Z,89.81
2022-10-28T23:23:04.173Z,89.79
2022-10-28T23:25:30.798Z,90.00
2022-10-28T23:27:57.997Z,90.28
2022-10-28T23:30:24.967Z,90.31
2022-10-28T23:32:57.071Z,90.36
2022-10-28T23:35:24.691Z,90.17
2022-10-28T23:37:54.163Z,90.32
2022-10-28T23:40:20.981Z,90.42
2022-10-28T23:42:47.746Z,90.65
2022-10-28T23:45:14.487Z,90.48
2022-10-28T23:47:41.160Z,90.53
2022-10-28T23:50:11.200Z,90.88
2022-10-28T23:52:37.812Z,90.65
2022-10-28T23:55:05.032Z,90.78
2022-10-28T23:57:31.632Z,90.74
